sensor_id;sensor_type;location;lat;lon;timestamp;pressure;altitude;pressure_sealevel;temperature;humidity
37648;BME280;23490;53.656;10.076;2023-02-27T00:01:00;99911.63;;;-145.95;90.67
37648;BME280;23490;53.656;10.076;2023-02-27T00:03:27;99930.22;;;-145.95;91.97
37648;BME280;23490;53.656;10.076;2023-02-27T00:05:52;99926.09;;;-145.95;92.10
37648;BME280;23490;53.656;10.076;2023-02-27T00:08:21;99955.00;;;-145.95;92.39
37648;BME280;23490;53.656;10.076;2023-02-27T00:10:48;99872.38;;;-145.95;92.49
37648;BME280;23490;53.656;10.076;2023-02-27T00:13:15;99936.41;;;-145.95;92.15
37648;BME280;23490;53.656;10.076;2023-02-27T00:15:40;99913.69;;;-145.95;92.82
37648;BME280;23490;53.656;10.076;2023-02-27T00:18:06;99901.31;;;-145.95;92.38
37648;BME280;23490;53.656;10.076;2023-02-27T00:20:35;99905.44;;;-145.95;92.42
37648;BME280;23490;53.656;10.076;2023-02-27T00:23:05;99913.69;;;-145.95;92.58
37648;BME280;23490;53.656;10.076;2023-02-27T00:25:33;99899.22;;;-145.95;92.20
37648;BME280;23490;53.656;10.076;2023-02-27T00:27:59;99893.03;;;-145.95;92.78
37648;BME280;23490;53.656;10.076;2023-02-27T00:30:24;99926.09;;;-145.95;92.64
37648;BME280;23490;53.656;10.076;2023-02-27T00:32:52;99893.03;;;-145.95;92.44
37648;BME280;23490;53.656;10.076;2023-02-27T00:35:18;99893.03;;;-145.95;93.62
37648;BME280;23490;53.656;10.076;2023-02-27T00:37:45;99862.06;;;-145.95;92.75
37648;BME280;23490;53.656;10.076;2023-02-27T00:40:11;99907.50;;;-145.95;92.96
37648;BME280;23490;53.656;10.076;2023-02-27T00:42:37;99921.94;;;-145.95;93.30
37648;BME280;23490;53.656;10.076;2023-02-27T00:45:05;99893.03;;;-145.95;93.10
37648;BME280;23490;53.656;10.076;2023-02-27T00:47:33;99948.81;;;-145.95;92.75
37648;BME280;23490;53.656;10.076;2023-02-27T00:49:58;99909.56;;;-145.95;92.74
37648;BME280;23490;53.656;10.076;2023-02-27T00:52:25;99905.44;;;-145.95;92.81
37648;BME280;23490;53.656;10.076;2023-02-27T00:54:50;99909.56;;;-145.95;92.68
37648;BME280;23490;53.656;10.076;2023-02-27T00:57:16;99938.47;;;-145.95;93.14
37648;BME280;23490;53.656;10.076;2023-02-27T00:59:42;99913.69;;;-145.95;92.80
37648;BME280;23490;53.656;10.076;2023-02-27T01:02:08;99901.31;;;-145.95;92.63
37648;BME280;23490;53.656;10.076;2023-02-27T01:04:34;99872.38;;;-145.95;92.45
37648;BME280;23490;53.656;10.076;2023-02-27T01:07:00;99942.59;;;-145.95;92.12
37648;BME280;23490;53.656;10.076;2023-02-27T01:09:28;99907.50;;;-145.95;92.19
37648;BME280;23490;53.656;10.076;2023-02-27T01:11:54;99909.56;;;-145.95;92.00
37648;BME280;23490;53.656;10.076;2023-02-27T01:14:20;99950.88;;;-145.95;92.75
37648;BME280;23490;53.656;10.076;2023-02-27T01:16:46;99942.59;;;-145.95;93.13
37648;BME280;23490;53.656;10.076;2023-02-27T01:19:12;99901.31;;;-145.95;93.63
37648;BME280;23490;53.656;10.076;2023-02-27T01:21:38;99907.50;;;-145.95;93.89
37648;BME280;23490;53.656;10.076;2023-02-27T01:24:08;99921.94;;;-145.95;93.50
37648;BME280;23490;53.656;10.076;2023-02-27T01:26:35;99897.16;;;-145.95;94.19
37648;BME280;23490;53.656;10.076;2023-02-27T01:29:00;99921.94;;;-145.95;93.80
37648;BME280;23490;53.656;10.076;2023-02-27T01:31:25;99901.31;;;-145.95;93.93
37648;BME280;23490;53.656;10.076;2023-02-27T01:33:51;99913.69;;;-145.95;94.06
37648;BME280;23490;53.656;10.076;2023-02-27T01:36:17;99897.16;;;-145.95;94.76
37648;BME280;23490;53.656;10.076;2023-02-27T01:38:43;99905.44;;;-145.95;93.20
37648;BME280;23490;53.656;10.076;2023-02-27T01:41:08;99938.47;;;-145.95;93.48
37648;BME280;23490;53.656;10.076;2023-02-27T01:43:53;99948.81;;;-145.95;93.60
37648;BME280;23490;53.656;10.076;2023-02-27T01:46:18;99913.69;;;-145.95;93.78
37648;BME280;23490;53.656;10.076;2023-02-27T01:48:43;99915.75;;;-145.95;93.68
37648;BME280;23490;53.656;10.076;2023-02-27T01:51:15;99921.94;;;-145.95;93.84
37648;BME280;23490;53.656;10.076;2023-02-27T01:53:47;99895.09;;;-145.95;94.11
37648;BME280;23490;53.656;10.076;2023-02-27T01:56:27;99934.34;;;-145.95;93.80
37648;BME280;23490;53.656;10.076;2023-02-27T01:58:57;99950.88;;;-145.95;94.80
37648;BME280;23490;53.656;10.076;2023-02-27T02:01:23;99921.94;;;-145.95;94.51
37648;BME280;23490;53.656;10.076;2023-02-27T02:04:25;99955.00;;;-145.95;95.07
37648;BME280;23490;53.656;10.076;2023-02-27T02:06:59;99919.88;;;-145.95;94.73
37648;BME280;23490;53.656;10.076;2023-02-27T02:09:24;99934.34;;;-145.95;95.04
37648;BME280;23490;53.656;10.076;2023-02-27T02:11:51;99934.34;;;-145.95;95.13
37648;BME280;23490;53.656;10.076;2023-02-27T02:14:17;99932.28;;;-145.95;94.58
37648;BME280;23490;53.656;10.076;2023-02-27T02:25:29;99932.28;;;-145.95;94.26
37648;BME280;23490;53.656;10.076;2023-02-27T02:28:37;99928.16;;;-145.95;94.38
37648;BME280;23490;53.656;10.076;2023-02-27T02:37:13;99934.34;;;-145.95;94.03
37648;BME280;23490;53.656;10.076;2023-02-27T02:40:27;99938.47;;;-145.95;93.45
37648;BME280;23490;53.656;10.076;2023-02-27T02:43:25;99959.13;;;-145.95;93.54
37648;BME280;23490;53.656;10.076;2023-02-27T02:46:04;99963.25;;;-145.95;94.16
37648;BME280;23490;53.656;10.076;2023-02-27T02:48:39;99938.47;;;-145.95;93.91
37648;BME280;23490;53.656;10.076;2023-02-27T02:51:15;99917.81;;;-145.95;93.96
37648;BME280;23490;53.656;10.076;2023-02-27T02:53:54;99959.13;;;-145.95;94.08
37648;BME280;23490;53.656;10.076;2023-02-27T02:56:28;99946.75;;;-145.95;94.38
37648;BME280;23490;53.656;10.076;2023-02-27T02:59:01;99967.41;;;-145.95;94.10
37648;BME280;23490;53.656;10.076;2023-02-27T03:01:42;99969.47;;;-145.95;94.05
37648;BME280;23490;53.656;10.076;2023-02-27T03:07:11;99913.69;;;-145.95;95.04
37648;BME280;23490;53.656;10.076;2023-02-27T03:09:49;99934.34;;;-145.95;94.52
37648;BME280;23490;53.656;10.076;2023-02-27T03:12:20;99955.00;;;-145.95;95.57
37648;BME280;23490;53.656;10.076;2023-02-27T03:15:11;99940.53;;;-145.95;94.87
37648;BME280;23490;53.656;10.076;2023-02-27T03:17:45;99936.41;;;-145.95;95.06
37648;BME280;23490;53.656;10.076;2023-02-27T03:20:40;99992.19;;;-145.95;95.68
37648;BME280;23490;53.656;10.076;2023-02-27T03:23:11;99963.25;;;-145.95;94.75
37648;BME280;23490;53.656;10.076;2023-02-27T03:25:40;99942.59;;;-145.95;94.93
37648;BME280;23490;53.656;10.076;2023-02-27T03:28:14;99961.19;;;-145.95;95.80
37648;BME280;23490;53.656;10.076;2023-02-27T03:30:49;99950.88;;;-145.95;94.88
37648;BME280;23490;53.656;10.076;2023-02-27T03:35:58;99934.34;;;-145.95;94.91
37648;BME280;23490;53.656;10.076;2023-02-27T03:38:38;99930.22;;;-145.95;94.88
37648;BME280;23490;53.656;10.076;2023-02-27T03:41:18;99946.75;;;-145.95;95.08
37648;BME280;23490;53.656;10.076;2023-02-27T03:44:10;99942.59;;;-145.95;94.80
37648;BME280;23490;53.656;10.076;2023-02-27T03:46:38;99928.16;;;-145.95;94.43
37648;BME280;23490;53.656;10.076;2023-02-27T03:49:05;99950.88;;;-145.95;95.56
37648;BME280;23490;53.656;10.076;2023-02-27T03:51:32;99942.59;;;-145.95;95.17
37648;BME280;23490;53.656;10.076;2023-02-27T03:54:16;99921.94;;;-145.95;95.29
37648;BME280;23490;53.656;10.076;2023-02-27T03:57:00;99967.41;;;-145.95;94.71
37648;BME280;23490;53.656;10.076;2023-02-27T03:59:28;99946.75;;;-145.95;94.65
37648;BME280;23490;53.656;10.076;2023-02-27T04:01:55;99992.19;;;-145.95;94.64
37648;BME280;23490;53.656;10.076;2023-02-27T04:04:21;99952.94;;;-145.95;95.17
37648;BME280;23490;53.656;10.076;2023-02-27T04:10:31;99934.34;;;-145.95;94.49
37648;BME280;23490;53.656;10.076;2023-02-27T04:19:15;99967.41;;;-145.95;95.33
37648;BME280;23490;53.656;10.076;2023-02-27T04:21:56;100004.56;;;-145.95;94.47
37648;BME280;23490;53.656;10.076;2023-02-27T04:24:50;99934.34;;;-145.95;95.20
37648;BME280;23490;53.656;10.076;2023-02-27T04:30:48;99930.22;;;-145.95;94.92
37648;BME280;23490;53.656;10.076;2023-02-27T04:33:49;99979.78;;;-145.95;94.56
37648;BME280;23490;53.656;10.076;2023-02-27T04:39:22;99944.69;;;-145.95;95.11
37648;BME280;23490;53.656;10.076;2023-02-27T04:42:04;99996.31;;;-145.95;94.80
37648;BME280;23490;53.656;10.076;2023-02-27T04:44:34;99946.75;;;-145.95;95.11
37648;BME280;23490;53.656;10.076;2023-02-27T04:47:03;99959.13;;;-145.95;94.96
37648;BME280;23490;53.656;10.076;2023-02-27T04:49:35;99905.44;;;-145.95;95.26
37648;BME280;23490;53.656;10.076;2023-02-27T04:52:12;99950.88;;;-145.95;94.53
37648;BME280;23490;53.656;10.076;2023-02-27T04:54:44;99942.59;;;-145.95;95.32
37648;BME280;23490;53.656;10.076;2023-02-27T04:57:18;99946.75;;;-145.95;94.91
37648;BME280;23490;53.656;10.076;2023-02-27T04:59:49;99979.78;;;-145.95;94.91
37648;BME280;23490;53.656;10.076;2023-02-27T05:02:24;99963.25;;;-145.95;94.93
37648;BME280;23490;53.656;10.076;2023-02-27T05:04:55;99909.56;;;-145.95;95.07
37648;BME280;23490;53.656;10.076;2023-02-27T05:07:26;99983.91;;;-145.95;95.38
37648;BME280;23490;53.656;10.076;2023-02-27T05:10:09;99959.13;;;-145.95;94.61
37648;BME280;23490;53.656;10.076;2023-02-27T05:12:45;99942.59;;;-145.95;95.38
37648;BME280;23490;53.656;10.076;2023-02-27T05:15:26;99988.06;;;-145.95;94.96
37648;BME280;23490;53.656;10.076;2023-02-27T05:17:59;99992.19;;;-145.95;94.53
37648;BME280;23490;53.656;10.076;2023-02-27T05:23:42;100004.56;;;-145.95;94.54
37648;BME280;23490;53.656;10.076;2023-02-27T05:29:39;99959.13;;;-145.95;94.99
37648;BME280;23490;53.656;10.076;2023-02-27T05:35:12;99979.78;;;-145.95;95.54
37648;BME280;23490;53.656;10.076;2023-02-27T05:37:47;99938.47;;;-145.95;95.66
37648;BME280;23490;53.656;10.076;2023-02-27T05:40:19;99946.75;;;-145.95;95.83
37648;BME280;23490;53.656;10.076;2023-02-27T05:42:54;99967.41;;;-145.95;96.06
37648;BME280;23490;53.656;10.076;2023-02-27T05:45:25;99965.34;;;-145.95;95.81
37648;BME280;23490;53.656;10.076;2023-02-27T05:48:01;99963.25;;;-145.95;95.55
37648;BME280;23490;53.656;10.076;2023-02-27T05:50:29;99983.91;;;-145.95;95.44
37648;BME280;23490;53.656;10.076;2023-02-27T05:53:02;99979.78;;;-145.95;95.07
37648;BME280;23490;53.656;10.076;2023-02-27T05:55:35;99938.47;;;-145.95;94.63
37648;BME280;23490;53.656;10.076;2023-02-27T05:58:15;99983.91;;;-145.95;94.85
37648;BME280;23490;53.656;10.076;2023-02-27T06:00:50;99955.00;;;-145.95;95.34
37648;BME280;23490;53.656;10.076;2023-02-27T06:03:17;99917.81;;;-145.95;95.65
37648;BME280;23490;53.656;10.076;2023-02-27T06:05:43;99979.78;;;-145.95;95.34
37648;BME280;23490;53.656;10.076;2023-02-27T06:08:10;99938.47;;;-145.95;95.35
37648;BME280;23490;53.656;10.076;2023-02-27T06:10:36;99950.88;;;-145.95;95.73
37648;BME280;23490;53.656;10.076;2023-02-27T06:13:03;99938.47;;;-145.95;95.07
37648;BME280;23490;53.656;10.076;2023-02-27T06:15:28;99992.19;;;-145.95;95.77
37648;BME280;23490;53.656;10.076;2023-02-27T06:17:56;99981.84;;;-145.95;95.05
37648;BME280;23490;53.656;10.076;2023-02-27T06:20:23;99950.88;;;-145.95;95.11
37648;BME280;23490;53.656;10.076;2023-02-27T06:22:50;100000.44;;;-145.95;94.74
37648;BME280;23490;53.656;10.076;2023-02-27T06:25:16;99942.59;;;-145.95;95.03
37648;BME280;23490;53.656;10.076;2023-02-27T06:27:42;99959.13;;;-145.95;95.38
37648;BME280;23490;53.656;10.076;2023-02-27T06:30:07;99959.13;;;-145.95;95.74
37648;BME280;23490;53.656;10.076;2023-02-27T06:32:33;99963.25;;;-145.95;95.49
37648;BME280;23490;53.656;10.076;2023-02-27T06:34:58;99965.34;;;-145.95;95.33
37648;BME280;23490;53.656;10.076;2023-02-27T06:37:28;99963.25;;;-145.95;96.19
37648;BME280;23490;53.656;10.076;2023-02-27T06:39:56;99955.00;;;-145.95;96.01
37648;BME280;23490;53.656;10.076;2023-02-27T06:42:22;99946.75;;;-145.95;96.04
37648;BME280;23490;53.656;10.076;2023-02-27T06:44:48;99983.91;;;-145.95;95.64
37648;BME280;23490;53.656;10.076;2023-02-27T06:47:13;99988.06;;;-145.95;95.54
37648;BME280;23490;53.656;10.076;2023-02-27T06:49:39;99901.31;;;-145.95;96.46
37648;BME280;23490;53.656;10.076;2023-02-27T06:52:04;99946.75;;;-145.95;96.68
37648;BME280;23490;53.656;10.076;2023-02-27T06:54:30;99940.53;;;-145.95;95.84
37648;BME280;23490;53.656;10.076;2023-02-27T06:56:55;99959.13;;;-145.95;96.14
37648;BME280;23490;53.656;10.076;2023-02-27T06:59:20;99983.91;;;-145.95;96.79
37648;BME280;23490;53.656;10.076;2023-02-27T07:01:46;99969.47;;;-145.95;98.37
37648;BME280;23490;53.656;10.076;2023-02-27T07:04:13;99994.25;;;-145.95;100.00
37648;BME280;23490;53.656;10.076;2023-02-27T07:06:39;99969.47;;;-145.95;100.00
37648;BME280;23490;53.656;10.076;2023-02-27T07:09:04;99967.41;;;-145.95;100.00
37648;BME280;23490;53.656;10.076;2023-02-27T07:11:29;99983.91;;;-145.95;99.66
37648;BME280;23490;53.656;10.076;2023-02-27T07:13:55;99971.53;;;-145.95;100.00
37648;BME280;23490;53.656;10.076;2023-02-27T07:16:20;99967.41;;;-145.95;99.68
37648;BME280;23490;53.656;10.076;2023-02-27T07:18:47;99957.06;;;-145.95;100.00
37648;BME280;23490;53.656;10.076;2023-02-27T07:21:12;99959.13;;;-145.95;99.83
37648;BME280;23490;53.656;10.076;2023-02-27T07:23:39;99971.53;;;-145.95;100.00
37648;BME280;23490;53.656;10.076;2023-02-27T07:26:05;99942.59;;;-145.95;100.00
37648;BME280;23490;53.656;10.076;2023-02-27T07:28:30;99955.00;;;-145.95;100.00
37648;BME280;23490;53.656;10.076;2023-02-27T07:30:55;99942.59;;;-145.95;100.00
37648;BME280;23490;53.656;10.076;2023-02-27T07:33:21;99979.78;;;-145.95;100.00
37648;BME280;23490;53.656;10.076;2023-02-27T07:35:48;99913.69;;;-145.95;100.00
37648;BME280;23490;53.656;10.076;2023-02-27T07:38:14;99946.75;;;-145.95;100.00
37648;BME280;23490;53.656;10.076;2023-02-27T07:40:39;99924.03;;;-145.95;100.00
37648;BME280;23490;53.656;10.076;2023-02-27T07:43:06;99930.22;;;-145.95;100.00
37648;BME280;23490;53.656;10.076;2023-02-27T07:45:32;99905.44;;;-145.95;100.00
37648;BME280;23490;53.656;10.076;2023-02-27T07:47:59;99938.47;;;-145.95;100.00
37648;BME280;23490;53.656;10.076;2023-02-27T07:50:25;99901.31;;;-145.95;100.00
37648;BME280;23490;53.656;10.076;2023-02-27T07:52:50;99905.44;;;-145.95;100.00
37648;BME280;23490;53.656;10.076;2023-02-27T07:55:16;99876.50;;;-145.95;100.00
37648;BME280;23490;53.656;10.076;2023-02-27T07:57:43;99884.78;;;-145.95;100.00
37648;BME280;23490;53.656;10.076;2023-02-27T08:00:10;99870.31;;;-145.95;100.00
37648;BME280;23490;53.656;10.076;2023-02-27T08:02:36;99870.31;;;-145.95;100.00
37648;BME280;23490;53.656;10.076;2023-02-27T08:05:03;99864.13;;;-145.95;100.00
37648;BME280;23490;53.656;10.076;2023-02-27T08:07:30;99866.19;;;-145.95;100.00
37648;BME280;23490;53.656;10.076;2023-02-27T08:09:56;99866.19;;;-145.95;100.00
37648;BME280;23490;53.656;10.076;2023-02-27T08:12:22;99818.69;;;-145.95;100.00
37648;BME280;23490;53.656;10.076;2023-02-27T08:14:48;99876.50;;;-145.95;100.00
37648;BME280;23490;53.656;10.076;2023-02-27T08:17:14;99835.19;;;-145.95;100.00
37648;BME280;23490;53.656;10.076;2023-02-27T08:19:40;99818.69;;;-145.95;100.00
37648;BME280;23490;53.656;10.076;2023-02-27T08:22:06;99773.25;;;-145.95;100.00
37648;BME280;23490;53.656;10.076;2023-02-27T08:24:31;99785.63;;;-145.95;100.00
37648;BME280;23490;53.656;10.076;2023-02-27T08:26:58;99839.34;;;-145.95;100.00
37648;BME280;23490;53.656;10.076;2023-02-27T08:29:23;99798.03;;;-145.95;100.00
37648;BME280;23490;53.656;10.076;2023-02-27T08:31:49;99793.91;;;-145.95;100.00
37648;BME280;23490;53.656;10.076;2023-02-27T08:34:14;99767.03;;;-145.95;100.00
37648;BME280;23490;53.656;10.076;2023-02-27T08:36:40;99787.69;;;-145.95;100.00
37648;BME280;23490;53.656;10.076;2023-02-27T08:39:07;99727.81;;;-145.95;99.75
37648;BME280;23490;53.656;10.076;2023-02-27T08:41:33;99703.00;;;-145.95;98.50
37648;BME280;23490;53.656;10.076;2023-02-27T08:43:58;99715.41;;;-145.95;97.02
37648;BME280;23490;53.656;10.076;2023-02-27T08:46:24;99744.31;;;-145.95;96.05
37648;BME280;23490;53.656;10.076;2023-02-27T08:48:49;99727.81;;;-145.95;95.54
37648;BME280;23490;53.656;10.076;2023-02-27T08:51:14;99676.16;;;-145.95;95.04
37648;BME280;23490;53.656;10.076;2023-02-27T08:53:40;99651.38;;;-145.95;94.86
37648;BME280;23490;53.656;10.076;2023-02-27T08:56:06;99653.44;;;-145.95;92.95
37648;BME280;23490;53.656;10.076;2023-02-27T08:58:31;99641.06;;;-145.95;92.01
37648;BME280;23490;53.656;10.076;2023-02-27T09:01:01;99636.94;;;-145.95;91.65
37648;BME280;23490;53.656;10.076;2023-02-27T09:03:27;99632.78;;;-145.95;90.04
37648;BME280;23490;53.656;10.076;2023-02-27T09:05:55;99669.97;;;-145.95;89.36
37648;BME280;23490;53.656;10.076;2023-02-27T09:08:21;99630.72;;;-145.95;88.58
37648;BME280;23490;53.656;10.076;2023-02-27T09:10:47;99585.28;;;-145.95;86.14
37648;BME280;23490;53.656;10.076;2023-02-27T09:13:12;99595.63;;;-145.95;85.10
37648;BME280;23490;53.656;10.076;2023-02-27T09:15:39;99612.16;;;-145.95;83.42
37648;BME280;23490;53.656;10.076;2023-02-27T09:18:05;99577.03;;;-145.95;82.97
37648;BME280;23490;53.656;10.076;2023-02-27T09:20:32;99510.94;;;-145.95;81.44
37648;BME280;23490;53.656;10.076;2023-02-27T09:23:00;99552.25;;;-145.95;81.38
37648;BME280;23490;53.656;10.076;2023-02-27T09:25:27;99541.91;;;-145.95;79.65
37648;BME280;23490;53.656;10.076;2023-02-27T09:27:54;99496.47;;;-145.95;78.85
37648;BME280;23490;53.656;10.076;2023-02-27T09:30:22;99463.44;;;-145.95;74.96
37648;BME280;23490;53.656;10.076;2023-02-27T09:32:49;99418.00;;;-145.95;73.99
37648;BME280;23490;53.656;10.076;2023-02-27T09:35:16;99430.41;;;-145.95;72.80
37648;BME280;23490;53.656;10.076;2023-02-27T09:37:46;99407.69;;;-145.95;72.69
37648;BME280;23490;53.656;10.076;2023-02-27T09:40:23;99372.56;;;-145.95;70.15
37648;BME280;23490;53.656;10.076;2023-02-27T09:42:50;99366.38;;;-145.95;69.83
37648;BME280;23490;53.656;10.076;2023-02-27T09:45:23;99413.88;;;-145.95;69.18
37648;BME280;23490;53.656;10.076;2023-02-27T09:48:14;99372.56;;;-145.95;68.79
37648;BME280;23490;53.656;10.076;2023-02-27T09:50:48;99389.09;;;-145.95;68.28
37648;BME280;23490;53.656;10.076;2023-02-27T09:53:21;99368.44;;;-145.95;66.48
37648;BME280;23490;53.656;10.076;2023-02-27T09:55:48;99368.44;;;-145.95;65.19
37648;BME280;23490;53.656;10.076;2023-02-27T09:58:29;99409.75;;;-145.95;66.55
37648;BME280;23490;53.656;10.076;2023-02-27T10:01:14;99294.09;;;-145.95;65.83
37648;BME280;23490;53.656;10.076;2023-02-27T10:03:50;99343.66;;;-145.95;65.64
37648;BME280;23490;53.656;10.076;2023-02-27T10:06:24;99327.13;;;-145.95;64.28
37648;BME280;23490;53.656;10.076;2023-02-27T10:14:40;99331.28;;;-145.95;62.39
37648;BME280;23490;53.656;10.076;2023-02-27T10:17:20;99310.63;;;-145.95;58.12
37648;BME280;23490;53.656;10.076;2023-02-27T10:19:47;99277.56;;;-145.95;56.98
37648;BME280;23490;53.656;10.076;2023-02-27T10:22:21;99393.22;;;-145.95;57.16
37648;BME280;23490;53.656;10.076;2023-02-27T10:25:00;99372.56;;;-145.95;58.44
37648;BME280;23490;53.656;10.076;2023-02-27T10:27:35;99364.31;;;-145.95;57.04
37648;BME280;23490;53.656;10.076;2023-02-27T10:30:26;99401.50;;;-145.95;57.77
37648;BME280;23490;53.656;10.076;2023-02-27T10:33:14;99376.69;;;-145.95;57.39
37648;BME280;23490;53.656;10.076;2023-02-27T10:35:44;99393.22;;;-145.95;58.88
37648;BME280;23490;53.656;10.076;2023-02-27T10:38:31;99401.50;;;-145.95;56.87
37648;BME280;23490;53.656;10.076;2023-02-27T10:40:58;99356.06;;;-145.95;55.68
37648;BME280;23490;53.656;10.076;2023-02-27T10:43:24;99351.91;;;-145.95;56.21
37648;BME280;23490;53.656;10.076;2023-02-27T10:45:52;99329.19;;;-145.95;57.87
37648;BME280;23490;53.656;10.076;2023-02-27T10:48:37;99343.66;;;-145.95;57.64
37648;BME280;23490;53.656;10.076;2023-02-27T10:51:34;99323.00;;;-145.95;57.94
37648;BME280;23490;53.656;10.076;2023-02-27T10:54:15;99318.88;;;-145.95;57.16
37648;BME280;23490;53.656;10.076;2023-02-27T10:56:46;99298.22;;;-145.95;55.61
37648;BME280;23490;53.656;10.076;2023-02-27T10:59:41;99364.31;;;-145.95;56.67
37648;BME280;23490;53.656;10.076;2023-02-27T11:04:46;99413.88;;;-145.95;59.59
37648;BME280;23490;53.656;10.076;2023-02-27T11:07:35;99384.97;;;-145.95;59.13
37648;BME280;23490;53.656;10.076;2023-02-27T11:10:15;99376.69;;;-145.95;60.73
37648;BME280;23490;53.656;10.076;2023-02-27T11:12:55;99320.94;;;-145.95;59.54
37648;BME280;23490;53.656;10.076;2023-02-27T11:15:23;99341.59;;;-145.95;59.27
37648;BME280;23490;53.656;10.076;2023-02-27T11:17:49;99302.34;;;-145.95;59.00
37648;BME280;23490;53.656;10.076;2023-02-27T11:20:35;99256.94;;;-145.95;60.56
37648;BME280;23490;53.656;10.076;2023-02-27T11:23:06;99265.19;;;-145.95;61.35
37648;BME280;23490;53.656;10.076;2023-02-27T11:25:39;99331.28;;;-145.95;59.45
37648;BME280;23490;53.656;10.076;2023-02-27T11:28:25;99298.22;;;-145.95;60.05
37648;BME280;23490;53.656;10.076;2023-02-27T11:31:06;99341.59;;;-145.95;60.97
37648;BME280;23490;53.656;10.076;2023-02-27T11:33:39;99376.69;;;-145.95;61.39
37648;BME280;23490;53.656;10.076;2023-02-27T11:36:11;99372.56;;;-145.95;64.75
37648;BME280;23490;53.656;10.076;2023-02-27T11:38:39;99339.53;;;-145.95;62.48
37648;BME280;23490;53.656;10.076;2023-02-27T11:41:06;99298.22;;;-145.95;62.10
37648;BME280;23490;53.656;10.076;2023-02-27T11:43:36;99314.75;;;-145.95;63.69
37648;BME280;23490;53.656;10.076;2023-02-27T11:46:08;99318.88;;;-145.95;61.20
37648;BME280;23490;53.656;10.076;2023-02-27T11:48:45;99341.59;;;-145.95;61.21
37648;BME280;23490;53.656;10.076;2023-02-27T11:56:25;99360.19;;;-145.95;59.66
37648;BME280;23490;53.656;10.076;2023-02-27T11:59:00;99337.47;;;-145.95;57.71
37648;BME280;23490;53.656;10.076;2023-02-27T12:01:30;99351.91;;;-145.95;58.17
37648;BME280;23490;53.656;10.076;2023-02-27T12:04:05;99356.06;;;-145.95;59.09
37648;BME280;23490;53.656;10.076;2023-02-27T12:06:41;99292.03;;;-145.95;57.00
37648;BME280;23490;53.656;10.076;2023-02-27T12:11:54;99240.41;;;-145.95;57.22
37648;BME280;23490;53.656;10.076;2023-02-27T12:14:24;99310.63;;;-145.95;57.35
37648;BME280;23490;53.656;10.076;2023-02-27T12:17:24;99223.88;;;-145.95;57.27
37648;BME280;23490;53.656;10.076;2023-02-27T12:22:23;99248.66;;;-145.95;55.91
37648;BME280;23490;53.656;10.076;2023-02-27T12:24:56;99242.47;;;-145.95;53.59
37648;BME280;23490;53.656;10.076;2023-02-27T12:30:01;99228.00;;;-145.95;54.27
37648;BME280;23490;53.656;10.076;2023-02-27T12:32:35;99058.69;;;-145.95;54.58
37648;BME280;23490;53.656;10.076;2023-02-27T12:35:22;99164.00;;;-145.95;54.70
37648;BME280;23490;53.656;10.076;2023-02-27T12:37:48;99168.13;;;-145.95;53.64
37648;BME280;23490;53.656;10.076;2023-02-27T12:40:15;98815.03;;;-145.95;52.37
37648;BME280;23490;53.656;10.076;2023-02-27T12:56:19;98905.88;;;-145.95;48.11
37648;BME280;23490;53.656;10.076;2023-02-27T12:58:52;98612.66;;;-145.95;47.93
37648;BME280;23490;53.656;10.076;2023-02-27T13:03:57;98910.00;;;-145.95;45.24
37648;BME280;23490;53.656;10.076;2023-02-27T13:06:39;98722.09;;;-145.95;46.87
37648;BME280;23490;53.656;10.076;2023-02-27T13:09:19;99077.25;;;-145.95;45.11
37648;BME280;23490;53.656;10.076;2023-02-27T13:11:59;98761.34;;;-145.95;47.08
37648;BME280;23490;53.656;10.076;2023-02-27T13:14:34;99021.50;;;-145.95;46.32
37648;BME280;23490;53.656;10.076;2023-02-27T13:17:16;99087.59;;;-145.95;46.00
37648;BME280;23490;53.656;10.076;2023-02-27T13:22:29;99112.38;;;-145.95;46.13
37648;BME280;23490;53.656;10.076;2023-02-27T13:24:58;99058.69;;;-145.95;46.27
37648;BME280;23490;53.656;10.076;2023-02-27T13:27:34;99108.25;;;-145.95;46.95
37648;BME280;23490;53.656;10.076;2023-02-27T13:30:29;98771.66;;;-145.95;47.44
37648;BME280;23490;53.656;10.076;2023-02-27T13:33:06;98963.69;;;-145.95;46.96
37648;BME280;23490;53.656;10.076;2023-02-27T13:36:09;98794.38;;;-145.95;46.61
37648;BME280;23490;53.656;10.076;2023-02-27T13:38:46;98823.28;;;-145.95;46.67
37648;BME280;23490;53.656;10.076;2023-02-27T13:46:45;98901.75;;;-145.95;48.08
37648;BME280;23490;53.656;10.076;2023-02-27T13:51:48;98792.31;;;-145.95;49.18
37648;BME280;23490;53.656;10.076;2023-02-27T13:54:27;98881.09;;;-145.95;47.35
37648;BME280;23490;53.656;10.076;2023-02-27T13:59:37;99079.34;;;-145.95;48.26
37648;BME280;23490;53.656;10.076;2023-02-27T14:04:46;99128.88;;;-145.95;48.65
37648;BME280;23490;53.656;10.076;2023-02-27T14:07:17;99133.03;;;-145.95;48.00
37648;BME280;23490;53.656;10.076;2023-02-27T14:09:49;99114.44;;;-145.95;47.63
37648;BME280;23490;53.656;10.076;2023-02-27T14:12:36;99209.44;;;-145.95;46.33
37648;BME280;23490;53.656;10.076;2023-02-27T14:15:52;99215.63;;;-145.95;46.93
37648;BME280;23490;53.656;10.076;2023-02-27T14:17:52;99151.59;;;-145.95;47.14
37648;BME280;23490;53.656;10.076;2023-02-27T14:28:55;99265.19;;;-145.95;48.16
37648;BME280;23490;53.656;10.076;2023-02-27T14:31:29;99289.97;;;-145.95;49.00
37648;BME280;23490;53.656;10.076;2023-02-27T14:33:55;99240.41;;;-145.95;48.67
37648;BME280;23490;53.656;10.076;2023-02-27T14:36:28;99306.50;;;-145.95;48.58
37648;BME280;23490;53.656;10.076;2023-02-27T14:38:57;99302.34;;;-145.95;49.37